createdAt,value
2018-09-13T00:01:04.663Z,20.67
2018-09-13T00:05:08.320Z,20.62
2018-09-13T00:09:11.971Z,20.56
2018-09-13T00:13:15.643Z,20.54
2018-09-13T00:17:19.605Z,20.48
2018-09-13T00:21:23.391Z,20.44
2018-09-13T00:25:27.002Z,20.40
2018-09-13T00:29:30.714Z,20.32
2018-09-13T00:33:34.468Z,20.26
2018-09-13T00:37:39.215Z,20.21
2018-09-13T00:41:42.940Z,20.16
2018-09-13T00:45:46.983Z,20.13
2018-09-13T00:49:50.507Z,20.12
2018-09-13T00:53:55.247Z,20.10
2018-09-13T00:57:58.759Z,20.05
2018-09-13T01:02:03.419Z,20.01
2018-09-13T01:06:07.344Z,19.99
2018-09-13T01:10:13.092Z,19.97
2018-09-13T01:14:16.879Z,19.98
2018-09-13T01:18:21.750Z,19.94
2018-09-13T01:22:25.363Z,19.89
2018-09-13T01:26:30.030Z,19.88
2018-09-13T01:30:33.675Z,19.87
2018-09-13T01:34:38.374Z,19.87
2018-09-13T01:38:42.256Z,19.81
2018-09-13T01:42:46.017Z,19.77
2018-09-13T01:46:49.576Z,19.72
2018-09-13T01:50:53.280Z,19.69
2018-09-13T01:54:56.844Z,19.63
2018-09-13T01:59:00.477Z,19.56
2018-09-13T02:03:04.315Z,19.53
2018-09-13T02:07:08.066Z,19.50
2018-09-13T02:11:11.687Z,19.47
2018-09-13T02:15:15.406Z,19.40
2018-09-13T02:19:19.010Z,19.35
2018-09-13T02:23:22.963Z,19.35
2018-09-13T02:27:26.901Z,19.33
2018-09-13T02:31:30.720Z,19.30
2018-09-13T02:35:34.435Z,19.28
2018-09-13T02:43:41.149Z,19.26
2018-09-13T02:47:45.867Z,19.23
2018-09-13T02:51:49.376Z,19.21
2018-09-13T02:55:54.103Z,19.17
2018-09-13T02:59:57.716Z,19.16
2018-09-13T03:04:02.471Z,19.15
2018-09-13T03:08:06.088Z,19.14
2018-09-13T03:12:09.651Z,19.10
2018-09-13T03:16:13.348Z,19.04
2018-09-13T03:20:17.611Z,19.02
2018-09-13T03:24:21.306Z,19.00
2018-09-13T03:28:25.082Z,19.00
2018-09-13T03:32:28.599Z,18.97
2018-09-13T03:36:33.307Z,18.96
2018-09-13T03:40:36.979Z,18.93
2018-09-13T03:44:40.682Z,18.92
2018-09-13T03:48:44.255Z,18.89
2018-09-13T03:52:48.013Z,18.88
2018-09-13T03:56:51.595Z,18.87
2018-09-13T04:00:55.238Z,18.87
2018-09-13T04:04:58.914Z,18.88
2018-09-13T04:09:02.833Z,18.87
2018-09-13T04:13:06.701Z,18.86
2018-09-13T04:17:10.401Z,18.85
2018-09-13T04:21:13.976Z,18.83
2018-09-13T04:25:17.902Z,18.79
2018-09-13T04:29:21.457Z,18.77
2018-09-13T04:33:25.179Z,18.76
2018-09-13T04:37:28.735Z,18.75
2018-09-13T04:41:32.419Z,18.74
2018-09-13T04:45:36.403Z,18.72
2018-09-13T04:49:40.370Z,18.69
2018-09-13T04:53:43.944Z,18.67
2018-09-13T04:57:47.744Z,18.66
2018-09-13T05:01:51.174Z,18.65
2018-09-13T05:05:54.850Z,18.67
2018-09-13T05:09:58.556Z,18.67
2018-09-13T05:14:02.314Z,18.69
2018-09-13T05:18:06.048Z,18.70
2018-09-13T05:22:10.639Z,18.72
2018-09-13T05:26:14.248Z,18.73
2018-09-13T05:30:17.876Z,18.78
2018-09-13T05:34:21.433Z,18.84
2018-09-13T05:38:24.934Z,18.88
2018-09-13T05:42:28.438Z,18.92
2018-09-13T05:46:31.937Z,18.96
2018-09-13T05:50:35.510Z,19.01
2018-09-13T05:54:40.195Z,19.07
2018-09-13T05:58:44.171Z,19.12
2018-09-13T06:02:48.754Z,19.17
2018-09-13T06:06:52.269Z,19.22
2018-09-13T06:10:55.755Z,19.27
2018-09-13T06:14:59.438Z,19.32
2018-09-13T06:19:03.011Z,19.39
2018-09-13T06:23:07.021Z,19.48
2018-09-13T06:27:11.657Z,19.55
2018-09-13T06:31:15.488Z,19.62
2018-09-13T06:35:19.081Z,19.72
2018-09-13T06:39:22.601Z,19.77
2018-09-13T06:43:26.178Z,19.82
2018-09-13T06:47:29.761Z,19.86
2018-09-13T06:51:33.284Z,19.93
2018-09-13T06:55:36.987Z,20.04
2018-09-13T07:00:44.939Z,20.16
2018-09-13T07:04:48.855Z,20.27
2018-09-13T07:08:52.803Z,20.37
2018-09-13T07:12:56.606Z,20.47
2018-09-13T07:17:00.457Z,20.53
2018-09-13T07:21:04.335Z,20.64
2018-09-13T07:25:08.474Z,20.81
2018-09-13T07:29:12.155Z,20.96
2018-09-13T07:33:15.652Z,21.17
2018-09-13T07:37:19.082Z,21.36
2018-09-13T07:41:23.069Z,21.52
2018-09-13T07:45:26.736Z,21.69
2018-09-13T07:49:30.336Z,21.84
2018-09-13T07:53:33.728Z,21.95
2018-09-13T07:57:37.231Z,22.08
2018-09-13T08:01:40.787Z,22.22
2018-09-13T08:05:44.263Z,22.37
2018-09-13T08:09:48.105Z,22.50
2018-09-13T08:13:52.383Z,22.63
2018-09-13T08:17:56.460Z,22.75
2018-09-13T08:22:01.950Z,22.88
2018-09-13T08:26:05.436Z,23.00
2018-09-13T08:30:08.917Z,23.13
2018-09-13T08:34:12.441Z,23.23
2018-09-13T08:38:16.009Z,23.36
2018-09-13T08:42:19.575Z,23.47
2018-09-13T08:46:23.261Z,23.58
2018-09-13T08:50:31.345Z,23.68
2018-09-13T08:54:34.820Z,23.77
2018-09-13T08:58:38.311Z,23.86
2018-09-13T09:02:42.497Z,23.98
2018-09-13T09:06:46.038Z,24.01
2018-09-13T09:10:49.646Z,24.01
2018-09-13T09:14:53.117Z,24.08
2018-09-13T09:18:56.765Z,24.13
2018-09-13T09:23:00.299Z,24.19
2018-09-13T09:27:03.951Z,24.30
2018-09-13T09:31:07.440Z,24.46
2018-09-13T09:35:10.993Z,24.47
2018-09-13T09:39:15.408Z,24.51
2018-09-13T09:43:18.962Z,24.58
2018-09-13T09:47:22.720Z,24.68
2018-09-13T09:51:26.366Z,24.85
2018-09-13T09:55:30.037Z,25.00
2018-09-13T09:59:33.738Z,25.15
2018-09-13T10:03:37.833Z,25.31
2018-09-13T10:07:41.419Z,25.44
2018-09-13T10:11:44.936Z,25.45
2018-09-13T10:15:53.834Z,25.44
2018-09-13T10:20:03.752Z,25.49
2018-09-13T10:24:12.532Z,25.57
2018-09-13T10:28:21.745Z,25.72
2018-09-13T10:32:31.760Z,25.81
2018-09-13T10:36:40.378Z,25.92
2018-09-13T10:40:49.245Z,26.03
2018-09-13T10:44:57.972Z,26.19
2018-09-13T10:49:06.926Z,26.35
2018-09-13T10:53:17.912Z,26.53
2018-09-13T10:57:26.822Z,26.71
2018-09-13T11:01:30.575Z,26.84
2018-09-13T11:05:34.186Z,26.96
2018-09-13T11:09:38.095Z,27.10
2018-09-13T11:14:02.135Z,27.24
2018-09-13T11:18:06.971Z,27.33
2018-09-13T11:22:10.590Z,27.44
2018-09-13T11:26:14.335Z,27.52
2018-09-13T11:30:17.979Z,27.64
2018-09-13T11:34:21.488Z,27.74
2018-09-13T11:38:25.098Z,27.85
2018-09-13T11:42:29.037Z,27.93
2018-09-13T11:51:15.279Z,27.85
2018-09-13T11:55:18.755Z,27.88
2018-09-13T11:59:22.391Z,27.87
2018-09-13T12:03:25.962Z,27.98
2018-09-13T12:07:29.886Z,28.12
2018-09-13T12:11:33.430Z,28.28
2018-09-13T12:15:36.921Z,28.35
2018-09-13T12:19:40.520Z,28.39
2018-09-13T12:23:44.122Z,28.46
2018-09-13T12:27:47.700Z,28.52
2018-09-13T12:31:51.176Z,28.53
2018-09-13T12:35:54.717Z,28.56
2018-09-13T12:39:58.286Z,28.63
2018-09-13T12:44:01.751Z,28.69
2018-09-13T12:48:05.405Z,28.71
2018-09-13T12:52:09.029Z,28.70
2018-09-13T12:56:12.617Z,28.77
2018-09-13T13:00:16.138Z,28.85
2018-09-13T13:04:19.822Z,28.85
2018-09-13T13:08:23.315Z,28.87
2018-09-13T13:12:26.889Z,28.95
2018-09-13T13:16:30.421Z,28.98
2018-09-13T13:20:34.458Z,28.97
2018-09-13T13:24:37.904Z,28.95
2018-09-13T13:28:41.623Z,28.97
2018-09-13T13:32:45.240Z,28.95
2018-09-13T13:36:49.012Z,28.90
2018-09-13T13:40:52.643Z,28.86
2018-09-13T13:44:56.723Z,28.81
2018-09-13T13:49:00.255Z,28.70
2018-09-13T13:53:04.334Z,28.67
2018-09-13T13:57:07.860Z,28.68
2018-09-13T14:01:11.444Z,28.66
2018-09-13T14:05:15.256Z,28.64
2018-09-13T14:09:18.775Z,28.64
2018-09-13T14:13:22.430Z,28.60
2018-09-13T14:17:26.110Z,28.57
2018-09-13T14:21:29.902Z,28.55
2018-09-13T14:25:33.556Z,28.59
2018-09-13T14:29:37.048Z,28.60
2018-09-13T14:33:40.631Z,28.59
2018-09-13T14:37:44.339Z,28.55
2018-09-13T14:41:47.869Z,28.53
2018-09-13T14:45:51.573Z,28.52
2018-09-13T14:49:55.496Z,28.52
2018-09-13T14:53:59.379Z,28.50
2018-09-13T14:58:03.746Z,28.48
2018-09-13T15:02:07.174Z,28.46
2018-09-13T15:06:10.779Z,28.44
2018-09-13T15:10:14.438Z,28.42
2018-09-13T15:14:18.050Z,28.41
2018-09-13T15:18:21.630Z,28.39
2018-09-13T15:22:25.311Z,28.38
2018-09-13T15:26:29.554Z,28.34
2018-09-13T15:30:33.643Z,28.30
2018-09-13T15:34:37.163Z,28.28
2018-09-13T15:38:40.899Z,28.26
2018-09-13T15:42:44.486Z,28.23
2018-09-13T15:46:48.135Z,28.20
2018-09-13T15:50:51.746Z,28.15
2018-09-13T15:54:55.337Z,28.13
2018-09-13T15:58:59.389Z,28.09
2018-09-13T16:03:02.981Z,28.04
2018-09-13T16:07:07.280Z,28.02
2018-09-13T16:11:10.851Z,27.99
2018-09-13T16:15:14.294Z,27.96
2018-09-13T16:19:17.918Z,27.88
2018-09-13T16:23:21.501Z,27.83
2018-09-13T16:27:25.157Z,27.81
2018-09-13T16:31:28.899Z,27.77
2018-09-13T16:35:32.548Z,27.71
2018-09-13T16:39:41.540Z,27.69
2018-09-13T16:43:50.626Z,27.64
2018-09-13T16:47:57.921Z,27.58
2018-09-13T16:52:01.486Z,27.50
2018-09-13T16:56:05.062Z,27.43
2018-09-13T17:00:08.926Z,27.36
2018-09-13T17:04:12.449Z,27.32
2018-09-13T17:08:16.058Z,27.26
2018-09-13T17:12:19.837Z,27.18
2018-09-13T17:16:23.332Z,27.12
2018-09-13T17:20:27.637Z,27.05
2018-09-13T17:24:32.262Z,26.96
2018-09-13T17:28:35.860Z,26.86
2018-09-13T17:32:39.689Z,26.80
2018-09-13T17:36:43.131Z,26.71
2018-09-13T17:40:46.614Z,26.62
2018-09-13T17:44:50.219Z,26.54
2018-09-13T17:48:53.895Z,26.47
2018-09-13T17:52:57.617Z,26.41
2018-09-13T17:57:01.211Z,26.34
2018-09-13T18:01:05.778Z,26.26
2018-09-13T18:05:09.928Z,26.20
2018-09-13T18:09:13.498Z,26.10
2018-09-13T18:13:17.204Z,26.03
2018-09-13T18:17:20.870Z,25.97
2018-09-13T18:21:24.558Z,25.90
2018-09-13T18:25:28.096Z,25.85
2018-09-13T18:29:31.732Z,25.80
2018-09-13T18:33:35.283Z,25.74
2018-09-13T18:37:38.951Z,25.70
2018-09-13T18:41:42.536Z,25.62
2018-09-13T18:45:46.251Z,25.50
2018-09-13T18:49:50.748Z,25.43
2018-09-13T18:53:54.645Z,25.37
2018-09-13T18:57:58.602Z,25.32
2018-09-13T19:02:03.456Z,25.27
2018-09-13T19:06:07.186Z,25.22
2018-09-13T19:10:10.813Z,25.18
2018-09-13T19:14:14.512Z,25.09
2018-09-13T19:18:18.729Z,25.03
2018-09-13T19:22:22.346Z,24.96
2018-09-13T19:26:26.826Z,24.92
2018-09-13T19:30:30.406Z,24.87
2018-09-13T19:34:33.995Z,24.82
2018-09-13T19:38:37.625Z,24.76
2018-09-13T19:42:41.334Z,24.70
2018-09-13T19:46:44.872Z,24.62
2018-09-13T19:50:49.019Z,24.52
2018-09-13T19:54:53.992Z,24.44
2018-09-13T19:58:57.764Z,24.41
2018-09-13T20:03:01.421Z,24.35
2018-09-13T20:07:05.818Z,24.29
2018-09-13T20:11:09.854Z,24.28
2018-09-13T20:15:13.530Z,24.26
2018-09-13T20:19:17.058Z,24.20
2018-09-13T20:23:21.463Z,24.12
2018-09-13T20:27:26.140Z,24.08
2018-09-13T20:31:31.342Z,24.03
2018-09-13T20:35:35.004Z,24.00
2018-09-13T20:39:38.566Z,23.94
2018-09-13T20:43:42.596Z,23.91
2018-09-13T20:47:46.243Z,23.91
2018-09-13T20:51:50.003Z,23.92
2018-09-13T20:55:54.076Z,23.90
2018-09-13T20:59:57.834Z,23.89
2018-09-13T21:04:01.531Z,23.91
2018-09-13T21:08:05.593Z,23.90
2018-09-13T21:12:10.513Z,23.89
2018-09-13T21:16:14.252Z,23.86
2018-09-13T21:20:18.396Z,23.83
2018-09-13T21:24:22.259Z,23.81
2018-09-13T21:28:25.922Z,23.78
2018-09-13T21:32:30.227Z,23.71
2018-09-13T21:36:33.933Z,23.63
2018-09-13T21:40:37.560Z,23.58
2018-09-13T21:44:42.339Z,23.55
2018-09-13T21:48:46.042Z,23.54
2018-09-13T21:52:49.758Z,23.51
2018-09-13T21:56:53.258Z,23.46
2018-09-13T22:00:56.883Z,23.45
2018-09-13T22:05:00.412Z,23.43
2018-09-13T22:09:06.695Z,23.38
2018-09-13T22:13:10.352Z,23.38
2018-09-13T22:17:13.943Z,23.36
2018-09-13T22:21:17.858Z,23.34
2018-09-13T22:25:21.389Z,23.34
2018-09-13T22:29:25.180Z,23.29
2018-09-13T22:33:28.786Z,23.26
2018-09-13T22:37:32.696Z,23.21
2018-09-13T22:41:36.964Z,23.21
2018-09-13T22:45:40.441Z,23.17
2018-09-13T22:49:44.083Z,23.12
2018-09-13T22:53:48.002Z,23.06
2018-09-13T22:57:51.818Z,22.98
2018-09-13T23:01:55.638Z,22.93
2018-09-13T23:05:59.307Z,22.92
2018-09-13T23:10:03.065Z,22.87
2018-09-13T23:14:06.863Z,22.80
2018-09-13T23:18:10.550Z,22.75
2018-09-13T23:22:14.434Z,22.72
2018-09-13T23:26:18.083Z,22.69
2018-09-13T23:30:21.696Z,22.65
2018-09-13T23:34:25.276Z,22.64
2018-09-13T23:38:29.104Z,22.58
2018-09-13T23:42:32.627Z,22.55
2018-09-13T23:46:36.823Z,22.50
2018-09-13T23:50:40.354Z,22.46
2018-09-13T23:54:44.108Z,22.46
2018-09-13T23:58:47.887Z,22.43
